sensor_id;sensor_type;location;lat;lon;timestamp;P1;durP1;ratioP1;P2;durP2;ratioP2
13234;SDS011;6683;48.506;9.050;2023-06-10T00:00:58;4.17;;;3.77;;
13234;SDS011;6683;48.506;9.050;2023-06-10T00:04:01;4.50;;;3.80;;
13234;SDS011;6683;48.506;9.050;2023-06-10T00:07:04;4.30;;;3.90;;
13234;SDS011;6683;48.506;9.050;2023-06-10T00:10:10;4.47;;;4.10;;
13234;SDS011;6683;48.506;9.050;2023-06-10T00:13:13;4.10;;;3.80;;
13234;SDS011;6683;48.506;9.050;2023-06-10T00:16:16;4.37;;;3.97;;
13234;SDS011;6683;48.506;9.050;2023-06-10T00:19:19;4.90;;;4.40;;
13234;SDS011;6683;48.506;9.050;2023-06-10T00:22:25;4.93;;;4.53;;
13234;SDS011;6683;48.506;9.050;2023-06-10T00:25:31;5.10;;;4.70;;
13234;SDS011;6683;48.506;9.050;2023-06-10T00:28:33;4.97;;;4.47;;
13234;SDS011;6683;48.506;9.050;2023-06-10T00:31:37;4.73;;;4.33;;
13234;SDS011;6683;48.506;9.050;2023-06-10T00:34:39;4.87;;;4.37;;
13234;SDS011;6683;48.506;9.050;2023-06-10T00:37:42;4.93;;;4.43;;
13234;SDS011;6683;48.506;9.050;2023-06-10T00:40:47;5.00;;;4.50;;
13234;SDS011;6683;48.506;9.050;2023-06-10T00:43:49;5.17;;;4.67;;
13234;SDS011;6683;48.506;9.050;2023-06-10T00:46:51;5.50;;;4.57;;
13234;SDS011;6683;48.506;9.050;2023-06-10T00:49:55;4.60;;;4.20;;
13234;SDS011;6683;48.506;9.050;2023-06-10T00:52:58;4.70;;;4.30;;
13234;SDS011;6683;48.506;9.050;2023-06-10T00:56:02;5.27;;;4.77;;
13234;SDS011;6683;48.506;9.050;2023-06-10T00:59:05;4.60;;;4.20;;
13234;SDS011;6683;48.506;9.050;2023-06-10T01:02:07;4.47;;;4.07;;
13234;SDS011;6683;48.506;9.050;2023-06-10T01:05:10;5.03;;;4.53;;
13234;SDS011;6683;48.506;9.050;2023-06-10T01:08:14;4.80;;;4.40;;
13234;SDS011;6683;48.506;9.050;2023-06-10T01:11:28;4.30;;;4.00;;
13234;SDS011;6683;48.506;9.050;2023-06-10T01:14:49;4.93;;;4.53;;
13234;SDS011;6683;48.506;9.050;2023-06-10T01:17:56;4.67;;;4.27;;
13234;SDS011;6683;48.506;9.050;2023-06-10T01:21:01;4.37;;;4.00;;
13234;SDS011;6683;48.506;9.050;2023-06-10T01:24:06;4.93;;;4.53;;
13234;SDS011;6683;48.506;9.050;2023-06-10T01:27:10;5.30;;;4.80;;
13234;SDS011;6683;48.506;9.050;2023-06-10T01:30:17;5.13;;;4.73;;
13234;SDS011;6683;48.506;9.050;2023-06-10T01:33:27;5.37;;;4.47;;
13234;SDS011;6683;48.506;9.050;2023-06-10T01:36:32;4.70;;;4.30;;
13234;SDS011;6683;48.506;9.050;2023-06-10T01:39:38;5.70;;;4.40;;
13234;SDS011;6683;48.506;9.050;2023-06-10T01:42:42;5.30;;;4.53;;
13234;SDS011;6683;48.506;9.050;2023-06-10T01:45:44;6.07;;;4.20;;
13234;SDS011;6683;48.506;9.050;2023-06-10T01:48:49;4.60;;;4.20;;
13234;SDS011;6683;48.506;9.050;2023-06-10T01:51:52;4.67;;;4.27;;
13234;SDS011;6683;48.506;9.050;2023-06-10T01:54:55;6.67;;;4.93;;
13234;SDS011;6683;48.506;9.050;2023-06-10T01:57:57;4.10;;;3.80;;
13234;SDS011;6683;48.506;9.050;2023-06-10T02:01:00;5.20;;;4.53;;
13234;SDS011;6683;48.506;9.050;2023-06-10T02:04:02;6.93;;;4.83;;
13234;SDS011;6683;48.506;9.050;2023-06-10T02:07:05;4.80;;;4.40;;
13234;SDS011;6683;48.506;9.050;2023-06-10T02:10:09;5.47;;;4.97;;
13234;SDS011;6683;48.506;9.050;2023-06-10T02:13:12;5.73;;;4.93;;
13234;SDS011;6683;48.506;9.050;2023-06-10T02:16:14;5.00;;;4.60;;
13234;SDS011;6683;48.506;9.050;2023-06-10T02:19:17;5.27;;;4.87;;
13234;SDS011;6683;48.506;9.050;2023-06-10T02:22:22;4.87;;;4.47;;
13234;SDS011;6683;48.506;9.050;2023-06-10T02:25:26;4.73;;;4.23;;
13234;SDS011;6683;48.506;9.050;2023-06-10T02:28:28;5.30;;;4.90;;
13234;SDS011;6683;48.506;9.050;2023-06-10T02:31:31;5.67;;;4.77;;
13234;SDS011;6683;48.506;9.050;2023-06-10T02:34:35;5.50;;;5.00;;
13234;SDS011;6683;48.506;9.050;2023-06-10T02:37:37;4.93;;;4.53;;
13234;SDS011;6683;48.506;9.050;2023-06-10T02:40:41;4.80;;;4.30;;
13234;SDS011;6683;48.506;9.050;2023-06-10T02:43:44;4.80;;;4.40;;
13234;SDS011;6683;48.506;9.050;2023-06-10T02:46:46;5.63;;;4.90;;
13234;SDS011;6683;48.506;9.050;2023-06-10T02:49:48;5.60;;;5.10;;
13234;SDS011;6683;48.506;9.050;2023-06-10T02:52:50;4.83;;;4.43;;
13234;SDS011;6683;48.506;9.050;2023-06-10T02:55:54;4.73;;;4.33;;
13234;SDS011;6683;48.506;9.050;2023-06-10T02:58:56;4.90;;;4.50;;
13234;SDS011;6683;48.506;9.050;2023-06-10T03:01:58;5.07;;;4.67;;
13234;SDS011;6683;48.506;9.050;2023-06-10T03:05:01;5.83;;;5.27;;
13234;SDS011;6683;48.506;9.050;2023-06-10T03:08:04;5.20;;;4.77;;
13234;SDS011;6683;48.506;9.050;2023-06-10T03:11:07;5.27;;;4.87;;
13234;SDS011;6683;48.506;9.050;2023-06-10T03:14:10;5.13;;;4.63;;
13234;SDS011;6683;48.506;9.050;2023-06-10T03:17:13;5.30;;;4.90;;
13234;SDS011;6683;48.506;9.050;2023-06-10T03:20:15;5.43;;;4.93;;
13234;SDS011;6683;48.506;9.050;2023-06-10T03:23:18;5.30;;;4.90;;
13234;SDS011;6683;48.506;9.050;2023-06-10T03:26:22;5.27;;;4.40;;
13234;SDS011;6683;48.506;9.050;2023-06-10T03:29:24;5.53;;;5.03;;
13234;SDS011;6683;48.506;9.050;2023-06-10T03:32:26;5.60;;;5.07;;
13234;SDS011;6683;48.506;9.050;2023-06-10T03:35:29;5.10;;;4.60;;
13234;SDS011;6683;48.506;9.050;2023-06-10T03:38:31;5.33;;;4.83;;
13234;SDS011;6683;48.506;9.050;2023-06-10T03:41:35;5.13;;;4.63;;
13234;SDS011;6683;48.506;9.050;2023-06-10T03:44:37;4.80;;;4.40;;
13234;SDS011;6683;48.506;9.050;2023-06-10T03:47:40;4.83;;;4.43;;
13234;SDS011;6683;48.506;9.050;2023-06-10T03:50:43;5.37;;;4.87;;
13234;SDS011;6683;48.506;9.050;2023-06-10T03:53:47;4.90;;;4.50;;
13234;SDS011;6683;48.506;9.050;2023-06-10T03:56:51;5.60;;;5.10;;
13234;SDS011;6683;48.506;9.050;2023-06-10T03:59:53;4.90;;;4.40;;
13234;SDS011;6683;48.506;9.050;2023-06-10T04:02:56;5.27;;;4.87;;
13234;SDS011;6683;48.506;9.050;2023-06-10T04:05:58;5.50;;;5.00;;
13234;SDS011;6683;48.506;9.050;2023-06-10T04:09:01;5.63;;;5.13;;
13234;SDS011;6683;48.506;9.050;2023-06-10T04:12:05;5.10;;;4.67;;
13234;SDS011;6683;48.506;9.050;2023-06-10T04:15:10;4.90;;;4.50;;
13234;SDS011;6683;48.506;9.050;2023-06-10T04:18:13;4.70;;;4.23;;
13234;SDS011;6683;48.506;9.050;2023-06-10T04:21:16;5.13;;;4.63;;
13234;SDS011;6683;48.506;9.050;2023-06-10T04:24:18;4.50;;;4.20;;
13234;SDS011;6683;48.506;9.050;2023-06-10T04:27:21;5.13;;;4.63;;
13234;SDS011;6683;48.506;9.050;2023-06-10T04:30:23;4.63;;;4.23;;
13234;SDS011;6683;48.506;9.050;2023-06-10T04:33:26;4.93;;;4.53;;
13234;SDS011;6683;48.506;9.050;2023-06-10T04:36:28;5.57;;;5.07;;
13234;SDS011;6683;48.506;9.050;2023-06-10T04:39:31;5.87;;;4.90;;
13234;SDS011;6683;48.506;9.050;2023-06-10T04:42:35;6.17;;;5.57;;
13234;SDS011;6683;48.506;9.050;2023-06-10T04:45:38;5.30;;;4.87;;
13234;SDS011;6683;48.506;9.050;2023-06-10T04:48:44;5.43;;;4.93;;
13234;SDS011;6683;48.506;9.050;2023-06-10T04:51:47;5.57;;;5.00;;
13234;SDS011;6683;48.506;9.050;2023-06-10T04:54:51;5.27;;;4.87;;
13234;SDS011;6683;48.506;9.050;2023-06-10T04:57:55;6.10;;;5.50;;
13234;SDS011;6683;48.506;9.050;2023-06-10T05:00:57;6.00;;;5.50;;
13234;SDS011;6683;48.506;9.050;2023-06-10T05:04:00;6.23;;;5.63;;
13234;SDS011;6683;48.506;9.050;2023-06-10T05:07:03;5.97;;;5.47;;
13234;SDS011;6683;48.506;9.050;2023-06-10T05:10:06;6.67;;;5.73;;
13234;SDS011;6683;48.506;9.050;2023-06-10T05:13:11;6.37;;;5.70;;
13234;SDS011;6683;48.506;9.050;2023-06-10T05:16:13;6.73;;;5.63;;
13234;SDS011;6683;48.506;9.050;2023-06-10T05:19:15;6.33;;;5.80;;
13234;SDS011;6683;48.506;9.050;2023-06-10T05:22:18;7.03;;;6.03;;
13234;SDS011;6683;48.506;9.050;2023-06-10T05:25:21;6.97;;;5.57;;
13234;SDS011;6683;48.506;9.050;2023-06-10T05:28:24;6.13;;;5.53;;
13234;SDS011;6683;48.506;9.050;2023-06-10T05:31:26;5.87;;;5.37;;
13234;SDS011;6683;48.506;9.050;2023-06-10T05:34:29;6.37;;;5.33;;
13234;SDS011;6683;48.506;9.050;2023-06-10T05:37:33;6.20;;;5.70;;
13234;SDS011;6683;48.506;9.050;2023-06-10T05:40:36;6.63;;;6.03;;
13234;SDS011;6683;48.506;9.050;2023-06-10T05:43:40;6.00;;;5.47;;
13234;SDS011;6683;48.506;9.050;2023-06-10T05:46:42;6.27;;;5.00;;
13234;SDS011;6683;48.506;9.050;2023-06-10T05:49:44;6.53;;;5.90;;
13234;SDS011;6683;48.506;9.050;2023-06-10T05:52:48;5.90;;;5.40;;
13234;SDS011;6683;48.506;9.050;2023-06-10T05:55:52;5.93;;;5.30;;
13234;SDS011;6683;48.506;9.050;2023-06-10T05:58:58;9.23;;;7.00;;
13234;SDS011;6683;48.506;9.050;2023-06-10T06:02:01;6.77;;;6.07;;
13234;SDS011;6683;48.506;9.050;2023-06-10T06:05:03;6.30;;;5.80;;
13234;SDS011;6683;48.506;9.050;2023-06-10T06:08:07;6.13;;;5.53;;
13234;SDS011;6683;48.506;9.050;2023-06-10T06:11:09;6.20;;;5.63;;
13234;SDS011;6683;48.506;9.050;2023-06-10T06:14:13;6.53;;;5.93;;
13234;SDS011;6683;48.506;9.050;2023-06-10T06:17:15;5.93;;;5.33;;
13234;SDS011;6683;48.506;9.050;2023-06-10T06:20:18;6.30;;;5.70;;
13234;SDS011;6683;48.506;9.050;2023-06-10T06:23:21;5.70;;;5.20;;
13234;SDS011;6683;48.506;9.050;2023-06-10T06:26:23;5.23;;;4.83;;
13234;SDS011;6683;48.506;9.050;2023-06-10T06:29:28;5.87;;;5.23;;
13234;SDS011;6683;48.506;9.050;2023-06-10T06:32:31;5.80;;;5.30;;
13234;SDS011;6683;48.506;9.050;2023-06-10T06:35:33;6.03;;;5.17;;
13234;SDS011;6683;48.506;9.050;2023-06-10T06:38:38;5.97;;;5.13;;
13234;SDS011;6683;48.506;9.050;2023-06-10T06:41:40;5.97;;;5.47;;
13234;SDS011;6683;48.506;9.050;2023-06-10T06:44:44;5.37;;;4.90;;
13234;SDS011;6683;48.506;9.050;2023-06-10T06:47:47;5.30;;;4.80;;
13234;SDS011;6683;48.506;9.050;2023-06-10T06:50:50;5.37;;;4.87;;
13234;SDS011;6683;48.506;9.050;2023-06-10T06:53:52;7.53;;;5.20;;
13234;SDS011;6683;48.506;9.050;2023-06-10T06:56:58;5.40;;;4.90;;
13234;SDS011;6683;48.506;9.050;2023-06-10T07:00:02;5.33;;;4.83;;
13234;SDS011;6683;48.506;9.050;2023-06-10T07:03:08;5.03;;;4.53;;
13234;SDS011;6683;48.506;9.050;2023-06-10T07:06:11;5.63;;;5.03;;
13234;SDS011;6683;48.506;9.050;2023-06-10T07:09:14;5.37;;;4.87;;
13234;SDS011;6683;48.506;9.050;2023-06-10T07:12:16;5.13;;;4.70;;
13234;SDS011;6683;48.506;9.050;2023-06-10T07:15:21;5.33;;;4.83;;
13234;SDS011;6683;48.506;9.050;2023-06-10T07:18:23;5.17;;;4.67;;
13234;SDS011;6683;48.506;9.050;2023-06-10T07:21:25;5.03;;;4.57;;
13234;SDS011;6683;48.506;9.050;2023-06-10T07:24:28;4.83;;;4.43;;
13234;SDS011;6683;48.506;9.050;2023-06-10T07:27:30;4.60;;;4.30;;
13234;SDS011;6683;48.506;9.050;2023-06-10T07:30:34;4.70;;;4.30;;
13234;SDS011;6683;48.506;9.050;2023-06-10T07:33:36;4.72;;;4.20;;
13234;SDS011;6683;48.506;9.050;2023-06-10T07:36:39;4.88;;;4.47;;
13234;SDS011;6683;48.506;9.050;2023-06-10T07:39:41;4.70;;;4.10;;
13234;SDS011;6683;48.506;9.050;2023-06-10T07:42:44;4.90;;;4.40;;
13234;SDS011;6683;48.506;9.050;2023-06-10T07:45:48;5.00;;;4.13;;
13234;SDS011;6683;48.506;9.050;2023-06-10T07:48:51;4.65;;;4.25;;
13234;SDS011;6683;48.506;9.050;2023-06-10T07:51:55;4.93;;;4.45;;
13234;SDS011;6683;48.506;9.050;2023-06-10T07:54:57;4.50;;;4.10;;
13234;SDS011;6683;48.506;9.050;2023-06-10T07:57:59;4.35;;;4.05;;
13234;SDS011;6683;48.506;9.050;2023-06-10T08:01:03;4.20;;;3.88;;
13234;SDS011;6683;48.506;9.050;2023-06-10T08:04:05;4.18;;;3.88;;
13234;SDS011;6683;48.506;9.050;2023-06-10T08:07:08;4.28;;;3.88;;
13234;SDS011;6683;48.506;9.050;2023-06-10T08:10:10;4.00;;;3.70;;
13234;SDS011;6683;48.506;9.050;2023-06-10T08:13:13;6.85;;;4.15;;
13234;SDS011;6683;48.506;9.050;2023-06-10T08:16:17;4.47;;;4.07;;
13234;SDS011;6683;48.506;9.050;2023-06-10T08:19:19;4.50;;;4.10;;
13234;SDS011;6683;48.506;9.050;2023-06-10T08:22:21;4.05;;;3.75;;
13234;SDS011;6683;48.506;9.050;2023-06-10T08:25:24;3.88;;;3.58;;
13234;SDS011;6683;48.506;9.050;2023-06-10T08:28:26;4.03;;;3.72;;
13234;SDS011;6683;48.506;9.050;2023-06-10T08:31:30;3.38;;;3.17;;
13234;SDS011;6683;48.506;9.050;2023-06-10T08:34:33;3.97;;;3.67;;
13234;SDS011;6683;48.506;9.050;2023-06-10T08:37:36;4.60;;;3.78;;
13234;SDS011;6683;48.506;9.050;2023-06-10T08:40:39;3.85;;;3.55;;
13234;SDS011;6683;48.506;9.050;2023-06-10T08:43:42;3.83;;;3.53;;
13234;SDS011;6683;48.506;9.050;2023-06-10T08:46:51;3.90;;;3.60;;
13234;SDS011;6683;48.506;9.050;2023-06-10T08:49:54;4.55;;;3.92;;
13234;SDS011;6683;48.506;9.050;2023-06-10T08:53:01;3.95;;;3.65;;
13234;SDS011;6683;48.506;9.050;2023-06-10T08:56:06;3.63;;;3.33;;
13234;SDS011;6683;48.506;9.050;2023-06-10T08:59:08;3.53;;;3.22;;
13234;SDS011;6683;48.506;9.050;2023-06-10T09:02:13;3.40;;;3.13;;
13234;SDS011;6683;48.506;9.050;2023-06-10T09:05:19;3.55;;;3.35;;
13234;SDS011;6683;48.506;9.050;2023-06-10T09:08:22;3.53;;;3.28;;
13234;SDS011;6683;48.506;9.050;2023-06-10T09:11:25;3.30;;;3.10;;
13234;SDS011;6683;48.506;9.050;2023-06-10T09:14:27;3.33;;;3.13;;
13234;SDS011;6683;48.506;9.050;2023-06-10T09:17:30;3.05;;;2.85;;
13234;SDS011;6683;48.506;9.050;2023-06-10T09:20:33;3.60;;;3.30;;
13234;SDS011;6683;48.506;9.050;2023-06-10T09:23:36;3.50;;;3.15;;
13234;SDS011;6683;48.506;9.050;2023-06-10T09:26:39;3.90;;;3.60;;
13234;SDS011;6683;48.506;9.050;2023-06-10T09:29:48;3.35;;;3.15;;
13234;SDS011;6683;48.506;9.050;2023-06-10T09:32:56;4.63;;;3.67;;
13234;SDS011;6683;48.506;9.050;2023-06-10T09:36:00;3.55;;;3.28;;
13234;SDS011;6683;48.506;9.050;2023-06-10T09:39:03;3.67;;;3.38;;
13234;SDS011;6683;48.506;9.050;2023-06-10T09:42:15;3.40;;;3.15;;
13234;SDS011;6683;48.506;9.050;2023-06-10T09:45:18;3.75;;;3.45;;
13234;SDS011;6683;48.506;9.050;2023-06-10T09:48:22;3.33;;;3.10;;
13234;SDS011;6683;48.506;9.050;2023-06-10T09:51:25;3.38;;;3.17;;
13234;SDS011;6683;48.506;9.050;2023-06-10T09:54:27;3.20;;;3.00;;
13234;SDS011;6683;48.506;9.050;2023-06-10T09:57:33;3.20;;;3.00;;
13234;SDS011;6683;48.506;9.050;2023-06-10T10:00:36;2.85;;;2.65;;
13234;SDS011;6683;48.506;9.050;2023-06-10T10:03:46;2.97;;;2.70;;
13234;SDS011;6683;48.506;9.050;2023-06-10T10:06:49;3.05;;;2.85;;
13234;SDS011;6683;48.506;9.050;2023-06-10T10:09:51;3.35;;;2.97;;
13234;SDS011;6683;48.506;9.050;2023-06-10T10:12:54;3.40;;;2.80;;
13234;SDS011;6683;48.506;9.050;2023-06-10T10:15:57;3.13;;;2.90;;
13234;SDS011;6683;48.506;9.050;2023-06-10T10:19:08;2.70;;;2.50;;
13234;SDS011;6683;48.506;9.050;2023-06-10T10:22:18;3.00;;;2.80;;
13234;SDS011;6683;48.506;9.050;2023-06-10T10:25:27;2.90;;;2.70;;
13234;SDS011;6683;48.506;9.050;2023-06-10T10:28:37;2.30;;;2.20;;
13234;SDS011;6683;48.506;9.050;2023-06-10T10:31:45;3.35;;;3.05;;
13234;SDS011;6683;48.506;9.050;2023-06-10T10:34:56;2.78;;;2.58;;
13234;SDS011;6683;48.506;9.050;2023-06-10T10:38:09;3.15;;;2.67;;
13234;SDS011;6683;48.506;9.050;2023-06-10T10:41:11;3.22;;;2.97;;
13234;SDS011;6683;48.506;9.050;2023-06-10T10:44:14;2.60;;;2.40;;
13234;SDS011;6683;48.506;9.050;2023-06-10T10:47:18;2.42;;;2.22;;
13234;SDS011;6683;48.506;9.050;2023-06-10T10:50:25;2.55;;;2.38;;
13234;SDS011;6683;48.506;9.050;2023-06-10T10:53:31;2.67;;;2.47;;
13234;SDS011;6683;48.506;9.050;2023-06-10T10:56:33;2.78;;;2.58;;
13234;SDS011;6683;48.506;9.050;2023-06-10T10:59:42;2.97;;;2.78;;
13234;SDS011;6683;48.506;9.050;2023-06-10T11:02:46;2.35;;;2.25;;
13234;SDS011;6683;48.506;9.050;2023-06-10T11:05:54;2.58;;;2.47;;
13234;SDS011;6683;48.506;9.050;2023-06-10T11:08:59;2.60;;;2.40;;
13234;SDS011;6683;48.506;9.050;2023-06-10T11:12:02;2.80;;;2.60;;
13234;SDS011;6683;48.506;9.050;2023-06-10T11:15:08;2.65;;;2.45;;
13234;SDS011;6683;48.506;9.050;2023-06-10T11:18:12;3.00;;;2.80;;
13234;SDS011;6683;48.506;9.050;2023-06-10T11:21:17;2.65;;;2.45;;
13234;SDS011;6683;48.506;9.050;2023-06-10T11:24:20;2.80;;;2.60;;
13234;SDS011;6683;48.506;9.050;2023-06-10T11:27:23;3.10;;;2.90;;
13234;SDS011;6683;48.506;9.050;2023-06-10T11:30:26;2.75;;;2.55;;
13234;SDS011;6683;48.506;9.050;2023-06-10T11:33:28;3.20;;;2.40;;
13234;SDS011;6683;48.506;9.050;2023-06-10T11:36:34;2.78;;;2.58;;
13234;SDS011;6683;48.506;9.050;2023-06-10T11:39:40;3.17;;;2.90;;
13234;SDS011;6683;48.506;9.050;2023-06-10T11:42:43;2.75;;;2.55;;
13234;SDS011;6683;48.506;9.050;2023-06-10T11:45:47;2.55;;;2.45;;
13234;SDS011;6683;48.506;9.050;2023-06-10T11:48:55;2.97;;;2.70;;
13234;SDS011;6683;48.506;9.050;2023-06-10T11:52:04;3.67;;;2.90;;
13234;SDS011;6683;48.506;9.050;2023-06-10T11:55:07;2.55;;;2.35;;
13234;SDS011;6683;48.506;9.050;2023-06-10T11:58:13;2.92;;;2.63;;
13234;SDS011;6683;48.506;9.050;2023-06-10T12:01:19;2.90;;;2.70;;
13234;SDS011;6683;48.506;9.050;2023-06-10T12:04:22;2.92;;;2.72;;
13234;SDS011;6683;48.506;9.050;2023-06-10T12:07:27;2.90;;;2.70;;
13234;SDS011;6683;48.506;9.050;2023-06-10T12:10:29;2.47;;;2.33;;
13234;SDS011;6683;48.506;9.050;2023-06-10T12:13:32;2.95;;;2.75;;
13234;SDS011;6683;48.506;9.050;2023-06-10T12:16:34;2.80;;;2.60;;
13234;SDS011;6683;48.506;9.050;2023-06-10T12:19:38;2.65;;;2.45;;
13234;SDS011;6683;48.506;9.050;2023-06-10T12:22:43;2.80;;;2.60;;
13234;SDS011;6683;48.506;9.050;2023-06-10T12:25:52;4.22;;;2.55;;
13234;SDS011;6683;48.506;9.050;2023-06-10T12:28:56;2.28;;;2.17;;
13234;SDS011;6683;48.506;9.050;2023-06-10T12:31:59;2.42;;;2.33;;
13234;SDS011;6683;48.506;9.050;2023-06-10T12:35:05;2.60;;;2.40;;
13234;SDS011;6683;48.506;9.050;2023-06-10T12:38:10;3.70;;;3.40;;
13234;SDS011;6683;48.506;9.050;2023-06-10T12:41:14;2.80;;;2.60;;
13234;SDS011;6683;48.506;9.050;2023-06-10T12:44:16;2.55;;;2.35;;
13234;SDS011;6683;48.506;9.050;2023-06-10T12:47:18;2.60;;;2.40;;
13234;SDS011;6683;48.506;9.050;2023-06-10T12:50:20;2.45;;;2.35;;
13234;SDS011;6683;48.506;9.050;2023-06-10T12:53:25;2.47;;;2.22;;
13234;SDS011;6683;48.506;9.050;2023-06-10T12:56:27;2.28;;;2.17;;
13234;SDS011;6683;48.506;9.050;2023-06-10T12:59:29;2.65;;;2.45;;
13234;SDS011;6683;48.506;9.050;2023-06-10T13:02:32;2.55;;;2.35;;
13234;SDS011;6683;48.506;9.050;2023-06-10T13:05:34;2.60;;;2.40;;
13234;SDS011;6683;48.506;9.050;2023-06-10T13:08:40;2.35;;;2.17;;
13234;SDS011;6683;48.506;9.050;2023-06-10T13:11:42;2.30;;;2.20;;
13234;SDS011;6683;48.506;9.050;2023-06-10T13:14:45;2.90;;;2.70;;
13234;SDS011;6683;48.506;9.050;2023-06-10T13:17:47;2.92;;;2.72;;
13234;SDS011;6683;48.506;9.050;2023-06-10T13:20:50;2.72;;;2.53;;
13234;SDS011;6683;48.506;9.050;2023-06-10T13:23:54;2.90;;;2.70;;
13234;SDS011;6683;48.506;9.050;2023-06-10T13:26:56;2.65;;;2.45;;
13234;SDS011;6683;48.506;9.050;2023-06-10T13:29:58;2.65;;;2.45;;
13234;SDS011;6683;48.506;9.050;2023-06-10T13:33:01;2.72;;;2.53;;
13234;SDS011;6683;48.506;9.050;2023-06-10T13:36:03;2.83;;;2.63;;
13234;SDS011;6683;48.506;9.050;2023-06-10T13:39:07;2.60;;;2.40;;
13234;SDS011;6683;48.506;9.050;2023-06-10T13:42:10;2.63;;;2.42;;
13234;SDS011;6683;48.506;9.050;2023-06-10T13:45:12;2.72;;;2.53;;
13234;SDS011;6683;48.506;9.050;2023-06-10T13:48:14;2.50;;;2.30;;
13234;SDS011;6683;48.506;9.050;2023-06-10T13:51:17;2.50;;;2.40;;
13234;SDS011;6683;48.506;9.050;2023-06-10T13:54:21;2.55;;;2.35;;
13234;SDS011;6683;48.506;9.050;2023-06-10T13:57:23;2.50;;;2.30;;
13234;SDS011;6683;48.506;9.050;2023-06-10T14:00:25;2.50;;;2.40;;
13234;SDS011;6683;48.506;9.050;2023-06-10T14:03:28;2.50;;;2.30;;
13234;SDS011;6683;48.506;9.050;2023-06-10T14:06:30;2.42;;;2.22;;
13234;SDS011;6683;48.506;9.050;2023-06-10T14:09:34;2.65;;;2.45;;
13234;SDS011;6683;48.506;9.050;2023-06-10T14:12:37;2.25;;;2.15;;
13234;SDS011;6683;48.506;9.050;2023-06-10T14:15:39;2.33;;;2.13;;
13234;SDS011;6683;48.506;9.050;2023-06-10T14:18:42;2.15;;;1.95;;
13234;SDS011;6683;48.506;9.050;2023-06-10T14:21:44;2.20;;;2.10;;
13234;SDS011;6683;48.506;9.050;2023-06-10T14:24:48;2.30;;;2.20;;
13234;SDS011;6683;48.506;9.050;2023-06-10T14:27:52;2.80;;;2.60;;
13234;SDS011;6683;48.506;9.050;2023-06-10T14:30:54;1.92;;;1.83;;
13234;SDS011;6683;48.506;9.050;2023-06-10T14:33:57;2.40;;;2.20;;
13234;SDS011;6683;48.506;9.050;2023-06-10T14:36:59;2.15;;;2.05;;
13234;SDS011;6683;48.506;9.050;2023-06-10T14:40:06;2.40;;;2.20;;
13234;SDS011;6683;48.506;9.050;2023-06-10T14:43:10;2.30;;;2.20;;
13234;SDS011;6683;48.506;9.050;2023-06-10T14:46:12;2.38;;;2.15;;
13234;SDS011;6683;48.506;9.050;2023-06-10T14:49:15;2.20;;;2.10;;
13234;SDS011;6683;48.506;9.050;2023-06-10T14:52:17;2.28;;;2.17;;
13234;SDS011;6683;48.506;9.050;2023-06-10T14:55:21;2.42;;;2.30;;
13234;SDS011;6683;48.506;9.050;2023-06-10T14:58:24;2.60;;;2.40;;
13234;SDS011;6683;48.506;9.050;2023-06-10T15:01:26;2.70;;;2.50;;
13234;SDS011;6683;48.506;9.050;2023-06-10T15:04:29;2.85;;;2.65;;
13234;SDS011;6683;48.506;9.050;2023-06-10T15:07:31;2.80;;;2.60;;
13234;SDS011;6683;48.506;9.050;2023-06-10T15:10:34;2.50;;;2.30;;
13234;SDS011;6683;48.506;9.050;2023-06-10T15:13:36;2.47;;;2.38;;
13234;SDS011;6683;48.506;9.050;2023-06-10T15:16:39;2.35;;;2.17;;
13234;SDS011;6683;48.506;9.050;2023-06-10T15:19:41;2.55;;;2.35;;
13234;SDS011;6683;48.506;9.050;2023-06-10T15:22:43;2.85;;;2.65;;
13234;SDS011;6683;48.506;9.050;2023-06-10T15:25:46;2.40;;;2.20;;
13234;SDS011;6683;48.506;9.050;2023-06-10T15:28:48;2.30;;;2.20;;
13234;SDS011;6683;48.506;9.050;2023-06-10T15:31:51;2.67;;;2.47;;
13234;SDS011;6683;48.506;9.050;2023-06-10T15:34:53;2.60;;;2.40;;
13234;SDS011;6683;48.506;9.050;2023-06-10T15:37:55;2.72;;;2.53;;
13234;SDS011;6683;48.506;9.050;2023-06-10T15:40:58;2.75;;;2.55;;
13234;SDS011;6683;48.506;9.050;2023-06-10T15:44:01;2.38;;;2.22;;
13234;SDS011;6683;48.506;9.050;2023-06-10T15:47:04;2.75;;;2.50;;
13234;SDS011;6683;48.506;9.050;2023-06-10T15:50:07;2.55;;;2.38;;
13234;SDS011;6683;48.506;9.050;2023-06-10T15:53:09;2.80;;;2.60;;
13234;SDS011;6683;48.506;9.050;2023-06-10T15:56:13;3.67;;;3.13;;
13234;SDS011;6683;48.506;9.050;2023-06-10T15:59:16;3.55;;;2.90;;
13234;SDS011;6683;48.506;9.050;2023-06-10T16:02:18;2.95;;;2.75;;
13234;SDS011;6683;48.506;9.050;2023-06-10T16:05:21;2.75;;;2.55;;
13234;SDS011;6683;48.506;9.050;2023-06-10T16:08:23;3.30;;;3.00;;
13234;SDS011;6683;48.506;9.050;2023-06-10T16:11:27;3.00;;;2.80;;
13234;SDS011;6683;48.506;9.050;2023-06-10T16:14:29;2.53;;;2.33;;
13234;SDS011;6683;48.506;9.050;2023-06-10T16:17:32;2.63;;;2.45;;
13234;SDS011;6683;48.506;9.050;2023-06-10T16:20:34;2.78;;;2.58;;
13234;SDS011;6683;48.506;9.050;2023-06-10T16:23:37;2.90;;;2.70;;
13234;SDS011;6683;48.506;9.050;2023-06-10T16:26:40;2.70;;;2.50;;
13234;SDS011;6683;48.506;9.050;2023-06-10T16:29:43;3.25;;;2.95;;
13234;SDS011;6683;48.506;9.050;2023-06-10T16:32:45;2.83;;;2.63;;
13234;SDS011;6683;48.506;9.050;2023-06-10T16:35:47;2.63;;;2.42;;
13234;SDS011;6683;48.506;9.050;2023-06-10T16:38:50;2.83;;;2.63;;
13234;SDS011;6683;48.506;9.050;2023-06-10T16:41:55;3.13;;;2.92;;
13234;SDS011;6683;48.506;9.050;2023-06-10T16:44:58;3.15;;;2.95;;
13234;SDS011;6683;48.506;9.050;2023-06-10T16:48:00;2.60;;;2.40;;
13234;SDS011;6683;48.506;9.050;2023-06-10T16:51:03;2.83;;;2.63;;
13234;SDS011;6683;48.506;9.050;2023-06-10T16:54:06;2.65;;;2.45;;
13234;SDS011;6683;48.506;9.050;2023-06-10T16:57:10;3.05;;;2.80;;
13234;SDS011;6683;48.506;9.050;2023-06-10T17:00:12;2.65;;;2.55;;
13234;SDS011;6683;48.506;9.050;2023-06-10T17:03:17;2.85;;;2.65;;
13234;SDS011;6683;48.506;9.050;2023-06-10T17:06:19;3.00;;;2.80;;
13234;SDS011;6683;48.506;9.050;2023-06-10T17:09:22;2.97;;;2.78;;
13234;SDS011;6683;48.506;9.050;2023-06-10T17:12:25;2.80;;;2.60;;
13234;SDS011;6683;48.506;9.050;2023-06-10T17:15:28;2.70;;;2.50;;
13234;SDS011;6683;48.506;9.050;2023-06-10T17:18:30;2.75;;;2.55;;
13234;SDS011;6683;48.506;9.050;2023-06-10T17:21:32;2.85;;;2.65;;
13234;SDS011;6683;48.506;9.050;2023-06-10T17:24:35;2.40;;;2.30;;
13234;SDS011;6683;48.506;9.050;2023-06-10T17:27:38;2.60;;;2.40;;
13234;SDS011;6683;48.506;9.050;2023-06-10T17:30:41;2.55;;;2.35;;
13234;SDS011;6683;48.506;9.050;2023-06-10T17:33:45;3.97;;;2.67;;
13234;SDS011;6683;48.506;9.050;2023-06-10T17:36:48;2.85;;;2.65;;
13234;SDS011;6683;48.506;9.050;2023-06-10T17:39:51;3.13;;;2.83;;
13234;SDS011;6683;48.506;9.050;2023-06-10T17:42:56;2.47;;;2.28;;
13234;SDS011;6683;48.506;9.050;2023-06-10T17:45:58;3.17;;;2.25;;
13234;SDS011;6683;48.506;9.050;2023-06-10T17:49:01;3.97;;;3.67;;
13234;SDS011;6683;48.506;9.050;2023-06-10T17:52:04;3.53;;;3.22;;
13234;SDS011;6683;48.506;9.050;2023-06-10T17:55:07;5.03;;;3.05;;
13234;SDS011;6683;48.506;9.050;2023-06-10T17:58:11;2.80;;;2.60;;
13234;SDS011;6683;48.506;9.050;2023-06-10T18:01:13;2.70;;;2.45;;
13234;SDS011;6683;48.506;9.050;2023-06-10T18:04:15;2.90;;;2.70;;
13234;SDS011;6683;48.506;9.050;2023-06-10T18:07:18;2.78;;;2.30;;
13234;SDS011;6683;48.506;9.050;2023-06-10T18:10:20;2.42;;;2.22;;
13234;SDS011;6683;48.506;9.050;2023-06-10T18:13:24;2.30;;;2.10;;
13234;SDS011;6683;48.506;9.050;2023-06-10T18:16:26;2.63;;;2.42;;
13234;SDS011;6683;48.506;9.050;2023-06-10T18:19:29;2.60;;;2.40;;
13234;SDS011;6683;48.506;9.050;2023-06-10T18:22:31;2.53;;;2.33;;
13234;SDS011;6683;48.506;9.050;2023-06-10T18:25:34;2.85;;;2.67;;
13234;SDS011;6683;48.506;9.050;2023-06-10T18:28:37;2.67;;;2.47;;
13234;SDS011;6683;48.506;9.050;2023-06-10T18:31:40;7.20;;;2.80;;
13234;SDS011;6683;48.506;9.050;2023-06-10T18:34:43;3.25;;;2.97;;
13234;SDS011;6683;48.506;9.050;2023-06-10T18:37:46;3.90;;;3.60;;
13234;SDS011;6683;48.506;9.050;2023-06-10T18:40:48;3.58;;;3.38;;